createdAt,value
2018-06-07T00:02:36.673Z,12.95
2018-06-07T00:08:31.651Z,21.36
2018-06-07T00:14:26.762Z,18.79
2018-06-07T00:20:21.725Z,14.1
2018-06-07T00:26:16.661Z,14.2
2018-06-07T00:32:11.659Z,14.14
2018-06-07T00:38:06.689Z,17.27
2018-06-07T00:44:01.671Z,13.42
2018-06-07T00:49:56.664Z,14.29
2018-06-07T00:55:51.659Z,19.93
2018-06-07T01:01:46.672Z,12.93
2018-06-07T01:07:41.767Z,18.09
2018-06-07T01:13:36.718Z,18.13
2018-06-07T01:19:31.714Z,10.72
2018-06-07T01:25:26.679Z,12.03
2018-06-07T01:31:21.683Z,13.02
2018-06-07T01:37:16.723Z,18.92
2018-06-07T01:43:11.672Z,10.9
2018-06-07T01:49:06.706Z,14.76
2018-06-07T01:55:01.829Z,9.01
2018-06-07T02:00:56.727Z,12.11
2018-06-07T02:12:46.709Z,10.25
2018-06-07T02:12:46.739Z,11.32
2018-06-07T02:18:59.745Z,10.13
2018-06-07T02:36:26.751Z,12.34
2018-06-07T02:36:26.767Z,9.8
2018-06-07T02:48:16.695Z,14.87
2018-06-07T03:00:06.736Z,31.07
2018-06-07T03:06:01.752Z,12.43
2018-06-07T03:11:56.875Z,14.1
2018-06-07T03:17:51.772Z,9.67
2018-06-07T03:23:46.696Z,8.3
2018-06-07T03:29:41.790Z,10.18
2018-06-07T03:35:36.768Z,8.58
2018-06-07T03:41:31.793Z,12.64
2018-06-07T03:47:26.822Z,15.31
2018-06-07T03:53:21.715Z,17.04
2018-06-07T03:59:16.740Z,15.88
2018-06-07T04:05:11.816Z,18.1
2018-06-07T04:11:06.765Z,16.24
2018-06-07T04:17:01.733Z,14.8
2018-06-07T04:22:56.789Z,16.67
2018-06-07T04:28:51.767Z,19.83
2018-06-07T04:34:46.766Z,14.52
2018-06-07T04:40:41.733Z,11.67
2018-06-07T04:46:36.746Z,12.27
2018-06-07T04:52:31.764Z,11.93
2018-06-07T04:58:26.770Z,12.1
2018-06-07T05:04:21.749Z,11.77
2018-06-07T05:10:16.875Z,20.96
2018-06-07T05:16:11.751Z,29.64
2018-06-07T05:22:06.771Z,17.67
2018-06-07T05:28:01.795Z,20.98
2018-06-07T05:33:56.803Z,25.39
2018-06-07T05:39:51.753Z,33.79
2018-06-07T05:45:46.770Z,24.39
2018-06-07T05:51:41.849Z,20.46
2018-06-07T05:57:36.816Z,15.91
2018-06-07T06:03:31.802Z,15.2
2018-06-07T06:09:26.902Z,19.56
2018-06-07T06:15:21.788Z,16.84
2018-06-07T06:21:16.828Z,16.09
2018-06-07T06:27:11.852Z,17.16
2018-06-07T06:33:06.808Z,24.16
2018-06-07T06:39:01.846Z,19.61
2018-06-07T06:44:56.817Z,19.21
2018-06-07T06:50:51.896Z,19.22
2018-06-07T06:56:46.836Z,20.43
2018-06-07T07:02:41.788Z,18.63
2018-06-07T07:08:36.812Z,13.63
2018-06-07T07:14:31.794Z,14.33
2018-06-07T07:20:26.824Z,17.45
2018-06-07T07:26:21.974Z,17.57
2018-06-07T07:32:16.793Z,13.82
2018-06-07T07:38:11.818Z,16.24
2018-06-07T07:44:06.812Z,15
2018-06-07T07:50:01.827Z,16.99
2018-06-07T07:55:56.856Z,13.79
2018-06-07T08:01:51.829Z,12.08
2018-06-07T08:07:46.799Z,14.13
2018-06-07T08:13:41.819Z,14.2
2018-06-07T08:19:36.843Z,10.21
2018-06-07T08:25:31.854Z,8.02
2018-06-07T08:31:26.865Z,14.23
2018-06-07T08:37:21.830Z,7.78
2018-06-07T08:43:16.825Z,10.03
2018-06-07T08:49:11.817Z,8.74
2018-06-07T08:55:07.031Z,12
2018-06-07T09:01:02.430Z,9.36
2018-06-07T09:06:56.823Z,11.01
2018-06-07T09:12:51.857Z,10.89
2018-06-07T09:18:46.865Z,9.07
2018-06-07T09:24:41.850Z,15.21
2018-06-07T09:30:36.840Z,8.39
2018-06-07T09:36:31.826Z,5.1
2018-06-07T09:42:26.839Z,8.84
2018-06-07T09:48:21.997Z,5.17
2018-06-07T09:54:16.920Z,6.55
2018-06-07T10:00:43.993Z,28.94
2018-06-07T10:06:06.901Z,4.39
2018-06-07T10:12:02.080Z,6.49
2018-06-07T10:17:56.939Z,5.18
2018-06-07T10:23:51.855Z,4.71
2018-06-07T10:29:46.891Z,4.46
2018-06-07T10:35:41.889Z,6.31
2018-06-07T10:41:36.878Z,4.17
2018-06-07T10:47:31.926Z,4.83
2018-06-07T10:53:26.888Z,7.12
2018-06-07T10:59:21.884Z,4.18
2018-06-07T11:05:17.011Z,7.17
2018-06-07T11:11:11.920Z,3.35
2018-06-07T11:17:06.892Z,5.02
2018-06-07T11:23:01.962Z,6.8
2018-06-07T11:28:56.901Z,5.65
2018-06-07T11:34:51.873Z,5.27
2018-06-07T11:40:46.980Z,5.71
2018-06-07T11:46:41.900Z,3.93
2018-06-07T11:52:36.875Z,2.9
2018-06-07T11:58:31.916Z,6
2018-06-07T12:04:26.926Z,3.07
2018-06-07T12:10:21.935Z,5.81
2018-06-07T12:16:16.942Z,5.21
2018-06-07T12:22:12.120Z,3.88
2018-06-07T12:28:07.074Z,6.5
2018-06-07T12:34:02.135Z,4.44
2018-06-07T12:39:57.039Z,3.25
2018-06-07T12:45:51.928Z,5.02
2018-06-07T12:51:46.945Z,7.17
2018-06-07T12:57:41.949Z,5.84
2018-06-07T13:03:37.175Z,4.02
2018-06-07T13:09:31.969Z,5.37
2018-06-07T13:15:27.078Z,4.09
2018-06-07T13:21:21.940Z,4.83
2018-06-07T13:27:47.704Z,5
2018-06-07T13:33:11.985Z,4.37
2018-06-07T13:40:10.103Z,2.95
2018-06-07T13:45:01.925Z,7.25
2018-06-07T13:50:57.029Z,6.43
2018-06-07T13:56:51.992Z,3.35
2018-06-07T14:02:46.956Z,5.11
2018-06-07T14:08:41.961Z,3.71
2018-06-07T14:14:37.166Z,6.48
2018-06-07T14:20:31.953Z,5.26
2018-06-07T14:26:26.930Z,6.75
2018-06-07T14:32:21.926Z,4.59
2018-06-07T14:38:17.033Z,4.22
2018-06-07T14:44:12.617Z,4.28
2018-06-07T14:50:07.044Z,3.2
2018-06-07T14:56:01.994Z,8.04
2018-06-07T15:01:57.026Z,4.41
2018-06-07T15:07:53.002Z,5.06
2018-06-07T15:13:47.007Z,4.18
2018-06-07T15:19:41.974Z,5.29
2018-06-07T15:25:36.978Z,4.05
2018-06-07T15:31:32.102Z,4.96
2018-06-07T15:37:26.998Z,4.53
2018-06-07T15:43:21.999Z,4.13
2018-06-07T15:49:17.025Z,4.93
2018-06-07T15:55:12.017Z,4.97
2018-06-07T16:01:07.029Z,9.98
2018-06-07T16:07:02.004Z,9.03
2018-06-07T16:12:57.012Z,16.99
2018-06-07T16:18:51.985Z,24.75
2018-06-07T16:24:47.145Z,9.74
2018-06-07T16:30:42.027Z,5.93
2018-06-07T16:36:36.999Z,8.81
2018-06-07T16:42:32.049Z,7.41
2018-06-07T16:48:26.997Z,8.18
2018-06-07T16:54:22.021Z,8.68
2018-06-07T17:00:17.413Z,6.08
2018-06-07T17:06:12.027Z,9.63
2018-06-07T17:12:07.009Z,7.64
2018-06-07T17:18:02.018Z,8.89
2018-06-07T17:23:57.052Z,9.01
2018-06-07T17:29:52.040Z,12.53
2018-06-07T17:35:47.021Z,7.07
2018-06-07T17:41:42.098Z,7.08
2018-06-07T17:47:37.025Z,7.05
2018-06-07T17:53:32.059Z,6.25
2018-06-07T17:59:27.069Z,7.12
2018-06-07T18:05:22.014Z,7.13
2018-06-07T18:11:17.025Z,9.7
2018-06-07T18:17:12.060Z,9.06
2018-06-07T18:23:07.068Z,9.52
2018-06-07T18:29:02.079Z,6.54
2018-06-07T18:34:57.071Z,6.18
2018-06-07T18:40:52.037Z,9.01
2018-06-07T18:46:47.125Z,7.16
2018-06-07T18:52:42.077Z,5.72
2018-06-07T18:58:37.160Z,9.8
2018-06-07T19:04:32.062Z,8.23
2018-06-07T19:10:27.141Z,10
2018-06-07T19:16:22.063Z,8.09
2018-06-07T19:22:17.072Z,8.95
2018-06-07T19:28:12.178Z,7.61
2018-06-07T19:34:07.068Z,5.97
2018-06-07T19:40:02.109Z,4.91
2018-06-07T19:45:57.117Z,8.46
2018-06-07T19:51:52.119Z,6.61
2018-06-07T19:57:47.070Z,6.2
2018-06-07T20:03:42.072Z,8.73
2018-06-07T20:09:37.069Z,5.49
2018-06-07T20:15:32.103Z,12.47
2018-06-07T20:21:27.081Z,12.95
2018-06-07T20:27:22.096Z,6.71
2018-06-07T20:33:17.075Z,7.63
2018-06-07T20:39:12.062Z,7.73
2018-06-07T20:45:07.130Z,10.6
2018-06-07T20:51:02.095Z,15.37
2018-06-07T20:56:57.108Z,8.05
2018-06-07T21:02:52.199Z,5.95
2018-06-07T21:08:47.082Z,7.35
2018-06-07T21:14:42.110Z,9.13
2018-06-07T21:20:37.104Z,10.82
2018-06-07T21:26:32.143Z,13.37
2018-06-07T21:32:27.134Z,10.24
2018-06-07T21:38:22.120Z,11.47
2018-06-07T21:44:17.150Z,8.49
2018-06-07T21:50:12.108Z,9.23
2018-06-07T21:56:07.099Z,9.47
2018-06-07T22:02:02.102Z,8.07
2018-06-07T22:07:57.166Z,11.29
2018-06-07T22:13:52.125Z,7.8
2018-06-07T22:19:47.144Z,11.2
2018-06-07T22:43:27.162Z,10.37
2018-06-07T22:43:27.208Z,10.65
2018-06-07T22:43:28.499Z,10.65
2018-06-07T22:55:17.117Z,5.63
2018-06-07T22:55:17.188Z,6.56
2018-06-07T23:01:12.294Z,7.4
2018-06-07T23:07:07.155Z,5.71
2018-06-07T23:13:02.190Z,19.32
2018-06-07T23:24:52.158Z,9.84
2018-06-07T23:24:52.231Z,9.14
2018-06-07T23:30:47.156Z,8.49
2018-06-07T23:36:42.150Z,8.76
2018-06-07T23:42:37.211Z,9.11
2018-06-07T23:48:32.141Z,7.57
2018-06-07T23:54:27.143Z,7.38
